Time;durP1;ratioP1;P1;durP2;ratioP2;P2;SDS_P1;SDS_P2;PMS_P1;PMS_P2;Temp;Humidity;BMP_temperature;BMP_pressure;BME280_temperature;BME280_humidity;BME280_pressure;Samples;Min_cycle;Max_cycle;Signal;HPM_P1;HPM_P2
2023/08/29 00:01:16;;;;;;;;;;;12.30;66.10;;;;;;4101811;28;19929;-84
2023/08/29 00:03:17;;;;;;;;;;;12.30;66.10;;;;;;4118339;28;19920;-83
2023/08/29 00:05:17;;;;;;;;;;;12.20;66.00;;;;;;4116613;28;19973;-82
2023/08/29 00:07:18;;;;;;;;;;;12.20;66.10;;;;;;4106999;28;19976;-84
2023/08/29 00:09:18;;;;;;;;;;;12.20;66.00;;;;;;4121193;28;19918;-84
2023/08/29 00:11:19;;;;;;;;;;;12.20;66.20;;;;;;4119969;28;19918;-82
2023/08/29 00:13:20;;;;;;;;;;;12.20;66.30;;;;;;4121269;28;20004;-83
2023/08/29 00:15:20;;;;;;;;;;;12.10;66.30;;;;;;4117897;28;19926;-83
2023/08/29 00:17:22;;;;;;;;;;;12.10;66.40;;;;;;4135829;28;19941;-83
2023/08/29 00:19:23;;;;;;;;;;;12.20;66.40;;;;;;4101806;28;20150;-83
2023/08/29 00:21:23;;;;;;;;;;;12.10;66.40;;;;;;4118510;28;19922;-82
2023/08/29 00:23:28;;;;;;;;;;;12.10;66.50;;;;;;4118403;28;19926;-83
2023/08/29 00:25:29;;;;;;;;;;;12.10;66.50;;;;;;4131975;28;19917;-82
2023/08/29 00:27:29;;;;;;;;;;;12.00;66.50;;;;;;4132937;28;19921;-83
2023/08/29 00:29:30;;;;;;;;;;;12.00;66.50;;;;;;4120646;28;20885;-82
2023/08/29 00:31:31;;;;;;;;;;;12.00;66.50;;;;;;4120091;28;19997;-83
2023/08/29 00:33:31;;;;;;;;;;;11.90;66.50;;;;;;4116764;28;19985;-83
2023/08/29 00:35:32;;;;;;;;;;;11.90;66.60;;;;;;4119286;28;20012;-83
2023/08/29 00:37:33;;;;;;;;;;;12.00;66.70;;;;;;4122173;28;19922;-83
2023/08/29 00:39:33;;;;;;;;;;;11.90;66.70;;;;;;4121683;28;19918;-83
2023/08/29 00:41:34;;;;;;;;;;;11.90;66.90;;;;;;4124342;28;19975;-83
2023/08/29 00:43:54;;;;;;;;;;;11.80;66.70;;;;;;4120213;28;19925;-82
2023/08/29 00:45:55;;;;;;;;;;;11.80;66.60;;;;;;4123801;28;19917;-82
2023/08/29 00:47:56;;;;;;;;;;;11.80;66.70;;;;;;4118792;28;19923;-82
2023/08/29 00:50:12;;;;;;;;;;;11.80;66.80;;;;;;4109525;28;20005;-83
2023/08/29 00:52:33;;;;;;;;;;;11.80;66.70;;;;;;4122046;28;19918;-83
2023/08/29 00:54:33;;;;;;;;;;;11.80;66.90;;;;;;4126988;28;19920;-84
2023/08/29 00:56:55;;;;;;;;;;;11.70;66.90;;;;;;4122174;28;19924;-83
2023/08/29 00:59:15;;;;;;;;;;;11.60;66.90;;;;;;4120625;28;19933;-84
2023/08/29 01:01:36;;;;;;;;;;;11.60;66.90;;;;;;4137867;28;20398;-83
2023/08/29 01:03:56;;;;;;;;;;;11.60;67.00;;;;;;4140769;28;19929;-83
2023/08/29 01:06:17;;;;;;;;;;;11.60;67.10;;;;;;4159500;28;19910;-82
2023/08/29 01:08:38;;;;;;;;;;;11.60;67.20;;;;;;4140699;28;19985;-83
2023/08/29 01:11:00;;;;;;;;;;;11.60;67.20;;;;;;4121684;28;20339;-83
2023/08/29 01:13:32;;;;;;;;;;;11.50;67.30;;;;;;4131081;28;19978;-82
2023/08/29 01:15:55;;;;;;;;;;;11.50;67.20;;;;;;4123392;28;20441;-82
2023/08/29 01:18:17;;;;;;;;;;;11.50;67.80;;;;;;4134303;28;19957;-83
2023/08/29 01:20:39;;;;;;;;;;;11.40;67.20;;;;;;4118795;28;19969;-84
2023/08/29 01:23:18;;;;;;;;;;;11.50;67.40;;;;;;4134942;28;19917;-83
2023/08/29 01:25:46;;;;;;;;;;;11.30;67.30;;;;;;4127053;28;19924;-83
2023/08/29 01:28:07;;;;;;;;;;;11.30;67.30;;;;;;4134228;28;20052;-82
2023/08/29 01:30:28;;;;;;;;;;;11.40;67.30;;;;;;4136136;28;19917;-81
2023/08/29 01:32:49;;;;;;;;;;;11.30;67.30;;;;;;4137084;28;20419;-82
2023/08/29 01:35:10;;;;;;;;;;;11.30;67.40;;;;;;4124087;28;20379;-83
2023/08/29 01:37:31;;;;;;;;;;;11.30;67.50;;;;;;4124819;28;19917;-83
2023/08/29 01:39:51;;;;;;;;;;;11.30;67.50;;;;;;4122370;28;20508;-84
2023/08/29 01:42:12;;;;;;;;;;;11.20;67.60;;;;;;4122843;28;19981;-85
2023/08/29 01:44:32;;;;;;;;;;;11.30;67.70;;;;;;4123877;28;19921;-84
2023/08/29 01:46:53;;;;;;;;;;;11.20;67.70;;;;;;4123088;28;20390;-84
2023/08/29 01:49:14;;;;;;;;;;;11.20;67.80;;;;;;4120656;28;20211;-84
2023/08/29 01:51:35;;;;;;;;;;;11.20;67.70;;;;;;4125473;28;19914;-83
2023/08/29 01:53:56;;;;;;;;;;;11.10;67.60;;;;;;4124126;28;19918;-85
2023/08/29 01:56:19;;;;;;;;;;;11.20;67.60;;;;;;4124018;28;20412;-84
2023/08/29 01:58:40;;;;;;;;;;;11.10;67.70;;;;;;4134123;28;20008;-84
2023/08/29 02:01:00;;;;;;;;;;;11.10;67.90;;;;;;4122860;28;19918;-85
2023/08/29 02:03:23;;;;;;;;;;;11.00;68.00;;;;;;4118204;28;19957;-84
2023/08/29 02:05:44;;;;;;;;;;;11.00;67.90;;;;;;4130425;28;19918;-83
2023/08/29 02:08:04;;;;;;;;;;;11.00;67.90;;;;;;4131007;28;19977;-84
2023/08/29 02:10:25;;;;;;;;;;;11.00;68.00;;;;;;4120535;28;20375;-84
2023/08/29 02:12:45;;;;;;;;;;;11.00;68.00;;;;;;4121832;28;19929;-84
2023/08/29 02:15:06;;;;;;;;;;;11.00;68.00;;;;;;4121895;28;20478;-84
2023/08/29 02:17:26;;;;;;;;;;;11.00;68.10;;;;;;4124827;28;19921;-83
2023/08/29 02:19:45;;;;;;;;;;;11.10;69.00;;;;;;4121172;28;19936;-83
2023/08/29 02:22:04;;;;;;;;;;;11.00;68.20;;;;;;4122594;28;19969;-83
2023/08/29 02:24:24;;;;;;;;;;;10.90;68.20;;;;;;4138294;28;19928;-83
2023/08/29 02:26:43;;;;;;;;;;;10.90;68.30;;;;;;4133972;28;19980;-83
2023/08/29 02:29:02;;;;;;;;;;;11.00;68.50;;;;;;4125707;28;20437;-86
2023/08/29 02:31:22;;;;;;;;;;;10.90;68.40;;;;;;4127213;28;19986;-83
2023/08/29 02:33:41;;;;;;;;;;;10.90;69.00;;;;;;4124598;28;19972;-85
2023/08/29 02:36:00;;;;;;;;;;;10.80;68.70;;;;;;4125510;28;19945;-84
2023/08/29 02:38:19;;;;;;;;;;;10.80;68.00;;;;;;4120109;28;19960;-82
2023/08/29 02:40:39;;;;;;;;;;;11.00;68.20;;;;;;4125182;28;20002;-86
2023/08/29 02:42:58;;;;;;;;;;;10.80;68.00;;;;;;4122999;28;19956;-83
2023/08/29 02:45:17;;;;;;;;;;;10.80;68.10;;;;;;4121489;28;20009;-84
2023/08/29 02:47:37;;;;;;;;;;;10.80;68.20;;;;;;4128155;28;19959;-84
2023/08/29 02:49:56;;;;;;;;;;;10.70;68.20;;;;;;4128896;28;19921;-84
2023/08/29 02:52:15;;;;;;;;;;;10.70;68.30;;;;;;4122922;28;20085;-84
2023/08/29 02:54:35;;;;;;;;;;;10.80;68.50;;;;;;4125394;28;20531;-83
2023/08/29 02:56:54;;;;;;;;;;;10.70;68.60;;;;;;4119480;28;20592;-84
2023/08/29 02:59:13;;;;;;;;;;;10.70;68.70;;;;;;4123686;28;19964;-83
2023/08/29 03:01:33;;;;;;;;;;;10.70;69.60;;;;;;4121699;28;19928;-85
2023/08/29 03:03:52;;;;;;;;;;;10.70;69.00;;;;;;4121321;28;19929;-83
2023/08/29 03:06:11;;;;;;;;;;;10.80;69.00;;;;;;4121193;28;19932;-84
2023/08/29 03:08:30;;;;;;;;;;;10.70;69.00;;;;;;4136790;28;20582;-85
2023/08/29 03:10:50;;;;;;;;;;;10.60;68.90;;;;;;4122000;28;20339;-84
2023/08/29 03:13:09;;;;;;;;;;;10.60;68.90;;;;;;4125717;28;19960;-83
2023/08/29 03:15:32;;;;;;;;;;;10.60;68.50;;;;;;4135119;28;19928;-84
2023/08/29 03:17:52;;;;;;;;;;;10.60;68.50;;;;;;4124699;28;19961;-83
2023/08/29 03:20:11;;;;;;;;;;;10.60;68.70;;;;;;4117101;28;19948;-84
2023/08/29 03:22:31;;;;;;;;;;;10.60;68.80;;;;;;4119262;28;20740;-84
2023/08/29 03:24:50;;;;;;;;;;;10.50;69.60;;;;;;4122777;28;19920;-84
2023/08/29 03:27:09;;;;;;;;;;;10.50;69.00;;;;;;4121175;28;19928;-84
2023/08/29 03:29:28;;;;;;;;;;;10.60;69.20;;;;;;4132716;28;19987;-85
2023/08/29 03:31:48;;;;;;;;;;;10.60;69.20;;;;;;4115998;28;19928;-84
2023/08/29 03:34:08;;;;;;;;;;;10.50;69.30;;;;;;4120486;28;19921;-83
2023/08/29 03:36:27;;;;;;;;;;;10.50;69.30;;;;;;4114709;28;19973;-84
2023/08/29 03:38:46;;;;;;;;;;;10.60;69.40;;;;;;4120191;28;19933;-83
2023/08/29 03:41:06;;;;;;;;;;;10.50;70.10;;;;;;4119947;28;19931;-84
2023/08/29 03:43:30;;;;;;;;;;;10.60;69.30;;;;;;4124295;28;19924;-83
2023/08/29 03:46:02;;;;;;;;;;;10.50;69.30;;;;;;4126658;28;19924;-84
2023/08/29 03:48:22;;;;;;;;;;;10.40;69.50;;;;;;4137609;28;19925;-84
2023/08/29 03:50:41;;;;;;;;;;;10.40;70.30;;;;;;4137080;28;20040;-83
2023/08/29 03:53:00;;;;;;;;;;;10.40;69.50;;;;;;4122302;28;19921;-84
2023/08/29 03:55:19;;;;;;;;;;;10.40;69.50;;;;;;4123929;28;19921;-83
2023/08/29 03:57:39;;;;;;;;;;;10.40;70.30;;;;;;4123515;28;19954;-83
2023/08/29 03:59:58;;;;;;;;;;;10.40;70.40;;;;;;4136760;28;19951;-83
2023/08/29 04:02:18;;;;;;;;;;;10.40;69.70;;;;;;4122578;28;19925;-83
2023/08/29 04:04:38;;;;;;;;;;;10.40;69.70;;;;;;4119158;28;19964;-84
2023/08/29 04:06:57;;;;;;;;;;;10.30;69.70;;;;;;4123940;28;19925;-83
2023/08/29 04:09:16;;;;;;;;;;;10.30;70.40;;;;;;4132515;28;20018;-83
2023/08/29 04:11:35;;;;;;;;;;;10.30;69.80;;;;;;4132831;28;19988;-83
2023/08/29 04:13:54;;;;;;;;;;;10.40;69.80;;;;;;4123491;28;20052;-83
2023/08/29 04:16:13;;;;;;;;;;;10.40;69.80;;;;;;4134866;28;19932;-85
2023/08/29 04:18:33;;;;;;;;;;;10.40;70.00;;;;;;4125201;28;21165;-83
2023/08/29 04:20:52;;;;;;;;;;;10.30;69.90;;;;;;4123567;28;20319;-83
2023/08/29 04:23:11;;;;;;;;;;;10.40;69.90;;;;;;4135326;28;20362;-83
2023/08/29 04:25:30;;;;;;;;;;;10.20;69.80;;;;;;4125945;28;19920;-84
2023/08/29 04:27:50;;;;;;;;;;;10.30;69.90;;;;;;4120315;28;19945;-84
2023/08/29 04:30:09;;;;;;;;;;;10.40;70.00;;;;;;4124421;28;19924;-85
2023/08/29 04:32:33;;;;;;;;;;;10.20;69.80;;;;;;4126175;28;20068;-84
2023/08/29 04:34:53;;;;;;;;;;;10.20;69.80;;;;;;4127643;28;20005;-84
2023/08/29 04:37:12;;;;;;;;;;;10.20;69.80;;;;;;4124931;28;19925;-83
2023/08/29 04:39:32;;;;;;;;;;;10.20;70.00;;;;;;4124164;28;20473;-84
2023/08/29 04:41:51;;;;;;;;;;;10.20;70.10;;;;;;4123712;28;19928;-85
2023/08/29 04:44:10;;;;;;;;;;;10.30;70.20;;;;;;4120146;28;20644;-83
2023/08/29 04:46:30;;;;;;;;;;;10.20;70.20;;;;;;4123259;28;19968;-83
2023/08/29 04:48:49;;;;;;;;;;;10.20;70.20;;;;;;4119699;28;20027;-82
2023/08/29 04:51:08;;;;;;;;;;;10.20;70.20;;;;;;4135716;28;19924;-83
2023/08/29 04:53:27;;;;;;;;;;;10.20;71.00;;;;;;4124089;28;20016;-84
2023/08/29 04:55:46;;;;;;;;;;;10.30;70.40;;;;;;4121987;28;20473;-84
2023/08/29 04:58:06;;;;;;;;;;;10.20;70.40;;;;;;4125117;28;20013;-85
2023/08/29 05:00:25;;;;;;;;;;;10.20;70.50;;;;;;4122937;28;20055;-83
2023/08/29 05:02:44;;;;;;;;;;;10.20;70.50;;;;;;4131703;28;19924;-83
2023/08/29 05:05:03;;;;;;;;;;;10.20;70.50;;;;;;4125640;28;20303;-85
2023/08/29 05:07:23;;;;;;;;;;;10.30;70.50;;;;;;4121496;28;20003;-85
2023/08/29 05:09:42;;;;;;;;;;;10.30;70.50;;;;;;4131834;28;20335;-85
2023/08/29 05:12:02;;;;;;;;;;;10.30;70.60;;;;;;4132035;28;19919;-83
2023/08/29 05:14:21;;;;;;;;;;;10.30;70.60;;;;;;4131449;28;19921;-83
2023/08/29 05:16:40;;;;;;;;;;;10.30;70.30;;;;;;4121601;28;20443;-84
2023/08/29 05:19:00;;;;;;;;;;;10.40;70.30;;;;;;4120154;28;19965;-85
2023/08/29 05:21:19;;;;;;;;;;;10.40;71.40;;;;;;4122067;28;20453;-83
2023/08/29 05:23:38;;;;;;;;;;;10.40;70.90;;;;;;4122578;28;20426;-84
2023/08/29 05:25:58;;;;;;;;;;;10.50;71.10;;;;;;4125402;28;19924;-83
2023/08/29 05:28:17;;;;;;;;;;;10.60;71.20;;;;;;4126914;28;19972;-84
2023/08/29 05:30:37;;;;;;;;;;;10.60;71.20;;;;;;4125385;28;19920;-83
2023/08/29 05:32:56;;;;;;;;;;;10.60;72.10;;;;;;4122834;28;20017;-84
2023/08/29 05:35:15;;;;;;;;;;;10.70;71.50;;;;;;4125771;28;19936;-83
2023/08/29 05:37:35;;;;;;;;;;;10.70;71.70;;;;;;4129793;28;19968;-84
2023/08/29 05:39:54;;;;;;;;;;;10.90;71.90;;;;;;4125883;28;19945;-84
2023/08/29 05:42:13;;;;;;;;;;;10.90;72.10;;;;;;4136587;28;19940;-82
2023/08/29 05:44:32;;;;;;;;;;;10.90;72.10;;;;;;4145292;28;19921;-82
2023/08/29 05:46:52;;;;;;;;;;;11.00;72.30;;;;;;4148517;28;19916;-83
2023/08/29 05:49:11;;;;;;;;;;;11.10;72.40;;;;;;4133630;28;19960;-83
2023/08/29 05:51:30;;;;;;;;;;;11.10;72.60;;;;;;4127127;28;19924;-84
2023/08/29 05:53:50;;;;;;;;;;;11.20;73.10;;;;;;4125315;28;19937;-84
2023/08/29 05:56:09;;;;;;;;;;;11.30;73.20;;;;;;4122404;28;19969;-84
2023/08/29 05:58:28;;;;;;;;;;;11.40;73.30;;;;;;4122887;28;20374;-83
2023/08/29 06:00:48;;;;;;;;;;;11.50;73.40;;;;;;4124565;28;19972;-85
2023/08/29 06:03:08;;;;;;;;;;;11.50;73.40;;;;;;4125333;28;20394;-84
2023/08/29 06:05:27;;;;;;;;;;;11.60;73.50;;;;;;4127054;28;19997;-84
2023/08/29 06:07:46;;;;;;;;;;;11.60;73.50;;;;;;4133145;28;19924;-84
2023/08/29 06:10:07;;;;;;;;;;;11.80;73.70;;;;;;4125032;28;19932;-84
2023/08/29 06:12:26;;;;;;;;;;;11.90;73.80;;;;;;4124308;28;19968;-84
2023/08/29 06:14:45;;;;;;;;;;;11.90;73.80;;;;;;4138103;28;20005;-84
2023/08/29 06:17:05;;;;;;;;;;;12.00;73.80;;;;;;4125880;28;20003;-84
2023/08/29 06:19:24;;;;;;;;;;;12.20;74.70;;;;;;4125025;28;19928;-84
2023/08/29 06:21:43;;;;;;;;;;;12.20;74.00;;;;;;4122073;28;19924;-84
2023/08/29 06:24:03;;;;;;;;;;;12.40;74.10;;;;;;4124765;28;19924;-84
2023/08/29 06:26:22;;;;;;;;;;;12.30;74.00;;;;;;4125519;28;19937;-83
2023/08/29 06:28:41;;;;;;;;;;;12.40;74.10;;;;;;4120522;28;19920;-84
2023/08/29 06:31:08;;;;;;;;;;;12.50;74.30;;;;;;4120421;28;19921;-85
2023/08/29 06:33:27;;;;;;;;;;;12.50;74.30;;;;;;4119872;28;19921;-84
2023/08/29 06:35:46;;;;;;;;;;;12.60;74.40;;;;;;4122282;28;19920;-85
2023/08/29 06:38:06;;;;;;;;;;;12.70;74.40;;;;;;4135861;28;19917;-84
2023/08/29 06:40:25;;;;;;;;;;;12.90;74.50;;;;;;4124323;28;19929;-85
2023/08/29 06:42:44;;;;;;;;;;;13.00;74.50;;;;;;4123560;28;19917;-85
2023/08/29 06:45:05;;;;;;;;;;;13.00;74.50;;;;;;4128183;28;19924;-85
2023/08/29 06:47:25;;;;;;;;;;;13.10;74.80;;;;;;4136521;28;19949;-84
2023/08/29 06:49:44;;;;;;;;;;;13.20;75.10;;;;;;4133325;28;19920;-84
2023/08/29 06:52:03;;;;;;;;;;;13.20;75.20;;;;;;4124084;28;19956;-84
2023/08/29 06:54:22;;;;;;;;;;;13.30;75.30;;;;;;4121288;28;20307;-85
2023/08/29 06:56:41;;;;;;;;;;;13.40;76.90;;;;;;4122170;28;20194;-84
2023/08/29 06:59:01;;;;;;;;;;;13.60;76.00;;;;;;4119858;28;19964;-84
2023/08/29 07:01:20;;;;;;;;;;;13.60;75.90;;;;;;4125864;28;19923;-84
2023/08/29 07:03:39;;;;;;;;;;;13.60;75.90;;;;;;4123975;28;20386;-84
2023/08/29 07:05:59;;;;;;;;;;;13.70;75.80;;;;;;4117849;28;19924;-84
2023/08/29 07:08:18;;;;;;;;;;;13.90;75.80;;;;;;4121660;28;19976;-84
2023/08/29 07:10:37;;;;;;;;;;;14.00;75.80;;;;;;4120681;28;20017;-85
2023/08/29 07:12:57;;;;;;;;;;;14.00;75.60;;;;;;4120060;28;19920;-84
2023/08/29 07:15:16;;;;;;;;;;;14.10;75.60;;;;;;4123668;28;20453;-85
2023/08/29 07:17:35;;;;;;;;;;;14.20;75.60;;;;;;4126254;28;20031;-85
2023/08/29 07:19:55;;;;;;;;;;;14.30;75.70;;;;;;4120093;28;20406;-85
2023/08/29 07:22:14;;;;;;;;;;;14.40;76.40;;;;;;4122074;28;19960;-85
2023/08/29 07:24:33;;;;;;;;;;;14.50;76.60;;;;;;4122067;28;19956;-86
2023/08/29 07:26:52;;;;;;;;;;;14.60;77.10;;;;;;4121322;28;19921;-86
2023/08/29 07:29:11;;;;;;;;;;;14.70;76.20;;;;;;4121680;28;19921;-85
2023/08/29 07:31:31;;;;;;;;;;;14.70;76.10;;;;;;4121653;28;19968;-86
2023/08/29 07:33:54;;;;;;;;;;;14.80;76.60;;;;;;4126685;28;19921;-85
2023/08/29 07:36:13;;;;;;;;;;;14.90;77.70;;;;;;4128902;28;19963;-87
2023/08/29 07:38:35;;;;;;;;;;;15.10;77.50;;;;;;4122713;28;19921;-84
2023/08/29 07:41:01;;;;;;;;;;;15.00;76.50;;;;;;4124277;28;19936;-85
2023/08/29 07:43:37;;;;;;;;;;;15.20;76.80;;;;;;4126332;28;19964;-85
2023/08/29 07:45:58;;;;;;;;;;;15.30;77.30;;;;;;4137730;28;20482;-85
2023/08/29 07:48:25;;;;;;;;;;;15.40;76.30;;;;;;4133905;28;19964;-85
2023/08/29 07:50:44;;;;;;;;;;;15.40;76.20;;;;;;4129636;28;19924;-85
2023/08/29 07:53:04;;;;;;;;;;;15.50;76.70;;;;;;4135769;28;20710;-86
2023/08/29 07:55:26;;;;;;;;;;;15.60;76.20;;;;;;4124984;28;19988;-86
2023/08/29 07:57:45;;;;;;;;;;;15.80;76.40;;;;;;4125806;28;20364;-86
2023/08/29 08:00:08;;;;;;;;;;;15.80;76.80;;;;;;4123049;28;19973;-86
2023/08/29 08:02:27;;;;;;;;;;;15.90;76.60;;;;;;4123066;28;20455;-85
2023/08/29 08:04:46;;;;;;;;;;;16.00;76.00;;;;;;4126180;28;19960;-86
2023/08/29 08:07:06;;;;;;;;;;;16.10;76.20;;;;;;4125452;28;19924;-86
2023/08/29 08:09:26;;;;;;;;;;;16.20;76.60;;;;;;4136950;28;20489;-86
2023/08/29 08:11:46;;;;;;;;;;;16.30;76.90;;;;;;4122766;28;20386;-86
2023/08/29 08:14:05;;;;;;;;;;;16.40;77.00;;;;;;4127898;28;19947;-85
2023/08/29 08:16:24;;;;;;;;;;;16.50;76.60;;;;;;4124731;28;19925;-86
2023/08/29 08:18:44;;;;;;;;;;;16.60;76.70;;;;;;4125180;28;19992;-86
2023/08/29 08:21:03;;;;;;;;;;;16.80;76.40;;;;;;4133387;28;20017;-86
2023/08/29 08:23:22;;;;;;;;;;;16.80;76.70;;;;;;4124006;28;19980;-86
2023/08/29 08:25:45;;;;;;;;;;;16.90;76.60;;;;;;4126312;28;20398;-85
2023/08/29 08:28:06;;;;;;;;;;;17.00;76.50;;;;;;4123736;28;19925;-86
2023/08/29 08:30:25;;;;;;;;;;;17.10;76.00;;;;;;4126722;28;19921;-86
2023/08/29 08:32:44;;;;;;;;;;;17.30;75.80;;;;;;4119197;28;19964;-86
2023/08/29 08:35:05;;;;;;;;;;;17.30;76.30;;;;;;4133632;28;19944;-86
2023/08/29 08:37:24;;;;;;;;;;;17.50;76.10;;;;;;4155715;28;20010;-85
2023/08/29 08:39:43;;;;;;;;;;;17.50;75.40;;;;;;4142045;28;19933;-84
2023/08/29 08:42:03;;;;;;;;;;;17.60;74.90;;;;;;4146496;28;19960;-85
2023/08/29 08:44:24;;;;;;;;;;;17.70;74.40;;;;;;4143924;28;19913;-86
2023/08/29 08:46:43;;;;;;;;;;;17.80;74.30;;;;;;4148492;28;19921;-86
2023/08/29 08:49:03;;;;;;;;;;;17.80;73.80;;;;;;4160781;28;19936;-84
2023/08/29 08:51:24;;;;;;;;;;;17.90;73.20;;;;;;4148953;28;19913;-85
2023/08/29 08:53:43;;;;;;;;;;;18.00;73.00;;;;;;4143416;28;19925;-84
2023/08/29 08:56:03;;;;;;;;;;;18.00;72.80;;;;;;4135435;28;20509;-86
2023/08/29 08:58:22;;;;;;;;;;;18.10;72.60;;;;;;4139061;28;19924;-86
2023/08/29 09:00:41;;;;;;;;;;;18.20;72.50;;;;;;4126150;28;19925;-86
2023/08/29 09:03:00;;;;;;;;;;;18.20;71.80;;;;;;4129698;28;19920;-86
2023/08/29 09:05:20;;;;;;;;;;;18.40;71.70;;;;;;4127047;28;19929;-85
2023/08/29 09:07:40;;;;;;;;;;;18.40;72.10;;;;;;4131191;28;19921;-85
2023/08/29 09:10:09;;;;;;;;;;;18.40;71.10;;;;;;4130322;28;19960;-85
2023/08/29 09:12:28;;;;;;;;;;;18.50;70.70;;;;;;4125719;28;19924;-83
2023/08/29 09:14:47;;;;;;;;;;;18.50;69.70;;;;;;4124612;28;20188;-86
2023/08/29 09:17:07;;;;;;;;;;;18.60;69.90;;;;;;4122464;28;19928;-86
2023/08/29 09:19:33;;;;;;;;;;;18.70;69.60;;;;;;4138627;28;19932;-86
2023/08/29 09:21:52;;;;;;;;;;;18.70;68.90;;;;;;4139641;28;19968;-86
2023/08/29 09:24:12;;;;;;;;;;;18.80;68.50;;;;;;4124298;28;19932;-87
2023/08/29 09:26:29;;;;;;;;;;;18.90;68.30;;;;;;4125454;28;19921;-86
2023/08/29 09:28:30;;;;;;;;;;;19.00;68.00;;;;;;4122725;28;20328;-87
2023/08/29 09:30:31;;;;;;;;;;;19.00;67.70;;;;;;4137694;28;20171;-85
2023/08/29 09:32:31;;;;;;;;;;;19.00;67.20;;;;;;4121978;28;20703;-87
2023/08/29 09:34:32;;;;;;;;;;;19.10;67.00;;;;;;4125655;28;20359;-87
2023/08/29 09:36:33;;;;;;;;;;;19.10;67.40;;;;;;4134570;28;19909;-86
2023/08/29 09:38:34;;;;;;;;;;;19.10;67.10;;;;;;4141313;28;19910;-86
2023/08/29 09:40:44;;;;;;;;;;;19.20;67.10;;;;;;4124144;28;19977;-85
2023/08/29 09:42:51;;;;;;;;;;;19.20;66.90;;;;;;4125215;28;20322;-86
2023/08/29 09:44:52;;;;;;;;;;;19.20;66.80;;;;;;4135075;28;20111;-87
2023/08/29 09:46:54;;;;;;;;;;;19.30;65.60;;;;;;4124741;28;19932;-87
2023/08/29 09:48:55;;;;;;;;;;;19.30;65.70;;;;;;4126537;28;20303;-87
2023/08/29 09:50:58;;;;;;;;;;;19.40;65.80;;;;;;4124911;28;19964;-87
2023/08/29 09:53:00;;;;;;;;;;;19.40;66.00;;;;;;4127368;28;19914;-86
2023/08/29 09:55:22;;;;;;;;;;;19.40;66.10;;;;;;4124012;28;19913;-86
2023/08/29 09:57:43;;;;;;;;;;;19.50;65.60;;;;;;4124487;28;19926;-85
2023/08/29 10:00:06;;;;;;;;;;;19.50;64.70;;;;;;4126264;28;19924;-85
2023/08/29 10:02:29;;;;;;;;;;;19.50;64.40;;;;;;4121046;28;19925;-85
2023/08/29 10:04:36;;;;;;;;;;;19.60;64.40;;;;;;4136465;28;19917;-87
2023/08/29 10:06:56;;;;;;;;;;;19.60;63.00;;;;;;4121791;28;19922;-87
2023/08/29 10:09:18;;;;;;;;;;;19.60;64.10;;;;;;4124942;28;19918;-87
2023/08/29 10:11:39;;;;;;;;;;;19.70;64.10;;;;;;4136893;28;20389;-86
2023/08/29 10:13:41;;;;;;;;;;;19.70;65.20;;;;;;4123945;28;19950;-86
2023/08/29 10:16:03;;;;;;;;;;;19.80;63.90;;;;;;4120703;28;19922;-87
2023/08/29 10:18:24;;;;;;;;;;;19.80;61.90;;;;;;4121974;28;19929;-87
2023/08/29 10:20:43;;;;;;;;;;;19.80;62.80;;;;;;4128119;28;19949;-86
2023/08/29 10:23:06;;;;;;;;;;;19.90;63.80;;;;;;4126326;28;19928;-86
2023/08/29 10:25:27;;;;;;;;;;;19.90;61.80;;;;;;4125093;28;19992;-87
2023/08/29 10:27:49;;;;;;;;;;;20.00;62.40;;;;;;4122563;28;19922;-86
2023/08/29 10:30:10;;;;;;;;;;;20.00;61.10;;;;;;4121013;28;19925;-86
2023/08/29 10:32:32;;;;;;;;;;;20.10;61.00;;;;;;4122001;28;19945;-86
2023/08/29 10:34:53;;;;;;;;;;;20.10;62.70;;;;;;4141519;28;19918;-86
2023/08/29 10:37:18;;;;;;;;;;;20.20;62.10;;;;;;4146658;28;19961;-85
2023/08/29 10:39:39;;;;;;;;;;;20.10;61.40;;;;;;4144349;28;19922;-87
2023/08/29 10:41:59;;;;;;;;;;;20.20;62.20;;;;;;4127701;28;19937;-87
2023/08/29 10:44:32;;;;;;;;;;;20.20;62.20;;;;;;4120331;28;19918;-87
2023/08/29 10:46:53;;;;;;;;;;;20.20;61.50;;;;;;4126711;28;19925;-88
2023/08/29 10:49:13;;;;;;;;;;;20.20;61.10;;;;;;4123605;28;19918;-87
2023/08/29 10:51:34;;;;;;;;;;;20.30;61.70;;;;;;4124921;28;20330;-87
2023/08/29 10:54:05;;;;;;;;;;;20.30;61.70;;;;;;4121546;28;19953;-86
2023/08/29 10:56:38;;;;;;;;;;;20.30;61.70;;;;;;4125044;28;19914;-87
2023/08/29 10:58:58;;;;;;;;;;;20.30;61.40;;;;;;4124938;28;19914;-86
2023/08/29 11:01:28;;;;;;;;;;;20.30;61.30;;;;;;4123599;28;19917;-86
2023/08/29 11:03:49;;;;;;;;;;;20.30;60.40;;;;;;4124043;28;19957;-86
2023/08/29 11:06:10;;;;;;;;;;;20.30;60.50;;;;;;4121595;28;20085;-86
2023/08/29 11:08:31;;;;;;;;;;;20.40;60.40;;;;;;4123365;28;19918;-86
2023/08/29 11:11:10;;;;;;;;;;;20.40;60.80;;;;;;4126375;28;20020;-86
2023/08/29 11:13:31;;;;;;;;;;;20.40;61.30;;;;;;4121138;28;19973;-86
2023/08/29 11:15:51;;;;;;;;;;;20.40;61.10;;;;;;4122872;28;19913;-86
2023/08/29 11:18:18;;;;;;;;;;;20.50;60.80;;;;;;4124791;28;19917;-85
2023/08/29 11:20:38;;;;;;;;;;;20.60;60.30;;;;;;4124083;28;19918;-86
2023/08/29 11:22:59;;;;;;;;;;;20.60;60.70;;;;;;4122342;28;19922;-87
2023/08/29 11:25:20;;;;;;;;;;;20.70;61.20;;;;;;4122629;28;20363;-85
2023/08/29 11:27:41;;;;;;;;;;;20.70;58.60;;;;;;4124285;28;19925;-87
2023/08/29 11:30:02;;;;;;;;;;;20.70;59.20;;;;;;4123057;28;20133;-85
2023/08/29 11:32:23;;;;;;;;;;;20.80;59.10;;;;;;4121713;28;19921;-86
2023/08/29 11:34:43;;;;;;;;;;;20.80;58.00;;;;;;4123497;28;19925;-86
2023/08/29 11:37:08;;;;;;;;;;;20.90;58.40;;;;;;4123943;28;19921;-88
2023/08/29 11:39:27;;;;;;;;;;;20.90;59.00;;;;;;4122424;28;19961;-85
2023/08/29 11:41:46;;;;;;;;;;;21.00;58.40;;;;;;4120461;28;19932;-86
2023/08/29 11:44:05;;;;;;;;;;;21.00;58.60;;;;;;4120693;28;19925;-86
2023/08/29 11:46:31;;;;;;;;;;;21.10;58.90;;;;;;4123100;28;19972;-85
2023/08/29 11:48:50;;;;;;;;;;;21.10;57.80;;;;;;4124764;28;20003;-86
2023/08/29 11:54:41;;;;;;;;;;;21.20;58.90;;;;;;4137749;28;19919;-86
2023/08/29 11:57:00;;;;;;;;;;;21.30;57.70;;;;;;4124758;28;19921;-86
2023/08/29 12:05:07;;;;;;;;;;;21.30;56.60;;;;;;4121942;28;19929;-87
2023/08/29 12:07:32;;;;;;;;;;;21.30;57.70;;;;;;4122798;28;20041;-86
2023/08/29 12:09:52;;;;;;;;;;;21.40;57.30;;;;;;4109302;28;19946;-88
2023/08/29 12:12:29;;;;;;;;;;;21.40;57.40;;;;;;4111415;28;20661;-87
2023/08/29 12:14:52;;;;;;;;;;;21.40;57.50;;;;;;4121796;28;20453;-87
2023/08/29 12:17:11;;;;;;;;;;;21.50;57.70;;;;;;4107851;28;19973;-87
2023/08/29 12:22:45;;;;;;;;;;;;;;;;;;;;;
2023/08/29 12:25:06;;;;;;;;;;;21.50;57.10;;;;;;4113318;28;20049;-87
2023/08/29 12:30:37;;;;;;;;;;;21.60;57.30;;;;;;4087628;28;20301;-88
2023/08/29 12:35:56;;;;;;;;;;;21.60;55.60;;;;;;4093619;28;19933;-87
2023/08/29 12:38:21;;;;;;;;;;;21.70;55.50;;;;;;4093830;29;19998;-88
2023/08/29 12:41:15;;;;;;;;;;;;;;;;;;;;;
2023/08/29 12:43:36;;;;;;;;;;;21.70;54.10;;;;;;4110328;28;19920;-87
2023/08/29 12:48:14;;;;;;;;;;;21.90;54.90;;;;;;4159863;28;19944;-84
2023/08/29 12:50:33;;;;;;;;;;;21.80;55.30;;;;;;4190877;28;20313;-85
2023/08/29 12:52:52;;;;;;;;;;;21.90;54.40;;;;;;4173214;28;19920;-82
2023/08/29 12:55:12;;;;;;;;;;;21.90;54.10;;;;;;4171361;28;19987;-84
2023/08/29 12:57:32;;;;;;;;;;;22.00;54.40;;;;;;4187947;28;19939;-84
2023/08/29 12:59:54;;;;;;;;;;;22.00;55.20;;;;;;4175951;28;19985;-84
2023/08/29 13:02:26;;;;;;;;;;;22.00;55.20;;;;;;4173314;28;19927;-84
2023/08/29 13:04:45;;;;;;;;;;;22.10;54.40;;;;;;4179141;28;19927;-84
2023/08/29 13:07:05;;;;;;;;;;;22.00;54.20;;;;;;4174545;28;19924;-84
2023/08/29 13:09:33;;;;;;;;;;;22.00;54.10;;;;;;4177703;23;19932;-84
2023/08/29 13:11:52;;;;;;;;;;;22.00;54.10;;;;;;4142663;28;19971;-84
2023/08/29 13:14:11;;;;;;;;;;;22.00;54.40;;;;;;4141270;28;20634;-84
2023/08/29 13:16:31;;;;;;;;;;;22.00;54.50;;;;;;4148168;28;19975;-85
2023/08/29 13:18:50;;;;;;;;;;;21.90;53.00;;;;;;4140723;28;19924;-84
2023/08/29 13:21:11;;;;;;;;;;;21.90;53.20;;;;;;4150604;28;19967;-84
2023/08/29 13:23:31;;;;;;;;;;;21.90;52.90;;;;;;4137364;28;19924;-84
2023/08/29 13:25:52;;;;;;;;;;;21.90;53.60;;;;;;4139963;28;20013;-85
2023/08/29 13:28:15;;;;;;;;;;;22.00;53.50;;;;;;4133307;28;20182;-85
2023/08/29 13:30:35;;;;;;;;;;;22.00;54.10;;;;;;4120740;28;20213;-84
2023/08/29 13:32:57;;;;;;;;;;;22.00;54.10;;;;;;4127057;28;20171;-84
2023/08/29 13:35:52;;;;;;;;;;;22.10;54.30;;;;;;4123555;28;19928;-85
2023/08/29 13:38:11;;;;;;;;;;;22.10;53.70;;;;;;4123189;28;19924;-84
2023/08/29 13:40:34;;;;;;;;;;;22.20;54.20;;;;;;4135338;28;20294;-84
2023/08/29 13:42:53;;;;;;;;;;;22.20;51.10;;;;;;4114372;28;19925;-84
2023/08/29 13:45:16;;;;;;;;;;;22.30;51.70;;;;;;4133376;28;20350;-85
2023/08/29 13:47:57;;;;;;;;;;;22.30;53.10;;;;;;4111153;28;19952;-85
2023/08/29 13:50:18;;;;;;;;;;;22.30;53.60;;;;;;4090766;28;19918;-84